createdAt,value
2023-03-16T00:00:33.918Z,0.20
2023-03-16T00:05:36.704Z,0.00
2023-03-16T00:10:46.624Z,0.00
2023-03-16T00:15:51.027Z,0.00
2023-03-16T00:20:55.331Z,0.00
2023-03-16T00:26:02.027Z,0.00
2023-03-16T00:31:05.103Z,0.00
2023-03-16T00:36:09.381Z,0.00
2023-03-16T00:41:14.856Z,0.00
2023-03-16T00:46:18.436Z,0.00
2023-03-16T00:51:22.848Z,0.00
2023-03-16T00:56:29.021Z,0.00
2023-03-16T01:01:32.789Z,0.00
2023-03-16T01:06:35.672Z,0.00
2023-03-16T01:11:42.917Z,0.00
2023-03-16T01:16:46.422Z,0.60
2023-03-16T01:21:49.358Z,0.40
2023-03-16T01:26:54.423Z,0.00
2023-03-16T01:31:57.702Z,0.00
2023-03-16T01:37:00.928Z,0.00
2023-03-16T01:42:17.207Z,0.00
2023-03-16T01:47:20.067Z,0.00
2023-03-16T01:52:24.396Z,0.00
2023-03-16T01:57:30.535Z,0.00
2023-03-16T02:02:33.449Z,0.00
2023-03-16T02:07:39.100Z,0.00
2023-03-16T02:12:43.726Z,0.00
2023-03-16T02:17:48.434Z,0.00
2023-03-16T02:22:55.061Z,0.00
2023-03-16T02:28:04.069Z,0.00
2023-03-16T02:33:09.551Z,0.00
2023-03-16T02:38:12.387Z,0.00
2023-03-16T02:43:23.431Z,0.00
2023-03-16T02:48:45.375Z,0.00
2023-03-16T02:53:48.210Z,0.00
2023-03-16T02:58:51.664Z,0.00
2023-03-16T03:03:57.753Z,0.00
2023-03-16T03:09:01.952Z,0.00
2023-03-16T03:14:05.371Z,0.00
2023-03-16T03:19:09.767Z,0.00
2023-03-16T03:24:13.922Z,0.00
2023-03-16T03:29:16.705Z,0.00
2023-03-16T03:34:20.834Z,0.00
2023-03-16T03:39:23.676Z,0.00
2023-03-16T03:44:27.707Z,0.00
2023-03-16T03:49:32.805Z,0.00
2023-03-16T03:54:35.881Z,0.00
2023-03-16T03:59:43.899Z,0.00
2023-03-16T04:05:17.346Z,0.00
2023-03-16T04:10:21.664Z,0.00
2023-03-16T04:15:24.515Z,0.00
2023-03-16T04:20:49.073Z,0.00
2023-03-16T04:25:56.045Z,0.00
2023-03-16T04:31:02.513Z,0.00
2023-03-16T04:36:12.065Z,0.00
2023-03-16T04:41:15.625Z,0.00
2023-03-16T04:46:27.297Z,0.00
2023-03-16T04:51:32.262Z,0.00
2023-03-16T04:56:44.364Z,0.00
2023-03-16T05:02:01.406Z,0.00
2023-03-16T05:07:05.723Z,0.00
2023-03-16T05:12:13.369Z,0.00
2023-03-16T05:17:16.632Z,0.00
2023-03-16T05:22:23.490Z,0.00
2023-03-16T05:27:53.880Z,0.00
2023-03-16T05:33:21.540Z,0.00
2023-03-16T05:38:29.558Z,0.80
2023-03-16T05:43:34.394Z,0.00
2023-03-16T05:48:37.481Z,0.00
2023-03-16T05:53:42.863Z,0.00
2023-03-16T05:58:53.829Z,0.00
2023-03-16T06:03:58.052Z,0.00
2023-03-16T06:09:05.185Z,0.00
2023-03-16T06:14:08.519Z,0.00
2023-03-16T06:19:12.609Z,0.00
2023-03-16T06:24:17.303Z,0.00
2023-03-16T06:29:20.693Z,0.00
2023-03-16T06:34:23.646Z,0.00
2023-03-16T06:39:27.988Z,0.00
2023-03-16T06:44:31.301Z,0.00
2023-03-16T06:49:44.292Z,0.00
2023-03-16T06:54:58.428Z,0.00
2023-03-16T07:00:03.981Z,0.00
2023-03-16T07:05:07.455Z,0.00
2023-03-16T07:10:13.640Z,0.00
2023-03-16T07:15:16.639Z,0.00
2023-03-16T07:20:21.680Z,0.00
2023-03-16T07:25:27.048Z,0.00
2023-03-16T07:30:31.207Z,0.00
2023-03-16T07:35:34.735Z,0.00
2023-03-16T07:40:40.321Z,0.00
2023-03-16T07:45:50.166Z,0.00
2023-03-16T07:50:54.256Z,5.60
2023-03-16T07:55:59.916Z,5.00
2023-03-16T08:01:02.942Z,7.00
2023-03-16T08:06:06.247Z,7.00
2023-03-16T08:11:11.141Z,4.00
2023-03-16T08:16:25.066Z,4.00
2023-03-16T08:21:28.361Z,2.80
2023-03-16T08:26:32.597Z,3.20
2023-03-16T08:31:35.571Z,4.00
2023-03-16T08:36:46.720Z,49.50
2023-03-16T08:41:52.136Z,55.25
2023-03-16T08:47:05.171Z,80.00
2023-03-16T08:52:10.345Z,94.67
2023-03-16T08:57:14.497Z,128.50
2023-03-16T09:02:17.376Z,128.50
2023-03-16T09:07:20.433Z,134.50
2023-03-16T09:12:25.018Z,133.00
2023-03-16T09:17:28.531Z,126.00
2023-03-16T09:22:31.423Z,123.00
2023-03-16T09:27:36.600Z,114.25
2023-03-16T09:32:39.506Z,110.50
2023-03-16T09:37:45.361Z,107.00
2023-03-16T09:43:03.674Z,102.50
2023-03-16T09:48:09.277Z,99.50
2023-03-16T09:53:17.289Z,97.25
2023-03-16T09:58:22.347Z,99.75
2023-03-16T10:04:05.195Z,92.67
2023-03-16T10:14:54.288Z,92.33
2023-03-16T10:19:58.731Z,89.00
2023-03-16T10:25:05.442Z,84.00
2023-03-16T10:30:19.887Z,88.00
2023-03-16T10:35:41.911Z,61.00
2023-03-16T10:40:44.661Z,60.50
2023-03-16T10:45:49.907Z,59.75
2023-03-16T10:50:53.619Z,56.75
2023-03-16T10:55:58.743Z,53.50
2023-03-16T11:01:03.498Z,52.75
2023-03-16T11:06:07.525Z,48.25
2023-03-16T11:11:11.823Z,47.00
2023-03-16T11:16:24.541Z,47.50
2023-03-16T11:21:36.203Z,46.25
2023-03-16T11:26:40.931Z,46.00
2023-03-16T11:31:49.418Z,45.00
2023-03-16T11:36:54.632Z,46.25
2023-03-16T11:42:02.354Z,44.00
2023-03-16T11:47:13.842Z,44.00
2023-03-16T11:52:20.575Z,44.00
2023-03-16T11:57:32.683Z,42.50
2023-03-16T12:02:47.445Z,44.00
2023-03-16T12:07:54.706Z,41.00
2023-03-16T12:13:03.310Z,41.75
2023-03-16T12:18:13.096Z,39.75
2023-03-16T12:23:22.518Z,39.00
2023-03-16T12:28:25.875Z,38.25
2023-03-16T12:33:37.152Z,38.00
2023-03-16T12:38:44.476Z,36.00
2023-03-16T12:43:57.417Z,38.25
2023-03-16T12:49:02.176Z,37.00
2023-03-16T12:54:06.197Z,36.50
2023-03-16T12:59:11.565Z,35.00
2023-03-16T13:04:17.176Z,34.75
2023-03-16T13:09:22.762Z,33.00
2023-03-16T13:14:38.258Z,32.75
2023-03-16T13:19:44.986Z,32.00
2023-03-16T13:24:52.612Z,31.67
2023-03-16T13:29:59.325Z,29.67
2023-03-16T13:35:03.532Z,30.00
2023-03-16T13:40:19.510Z,29.00
2023-03-16T13:45:23.863Z,29.00
2023-03-16T13:50:28.223Z,28.00
2023-03-16T13:55:32.866Z,27.33
2023-03-16T14:00:36.959Z,27.00
2023-03-16T14:05:41.789Z,27.00
2023-03-16T14:10:45.116Z,27.00
2023-03-16T14:15:47.927Z,27.00
2023-03-16T14:20:53.222Z,27.67
2023-03-16T14:25:56.086Z,27.00
2023-03-16T14:31:03.968Z,27.67
2023-03-16T14:36:18.742Z,24.00
2023-03-16T14:41:24.133Z,26.00
2023-03-16T14:46:29.667Z,25.00
2023-03-16T14:51:34.919Z,25.00
2023-03-16T14:56:38.229Z,26.00
2023-03-16T15:01:41.243Z,25.25
2023-03-16T15:06:45.585Z,25.00
2023-03-16T15:11:49.115Z,25.00
2023-03-16T15:16:52.553Z,23.67
2023-03-16T15:21:57.939Z,23.25
2023-03-16T15:27:00.989Z,24.00
2023-03-16T15:32:04.273Z,22.00
2023-03-16T15:37:12.306Z,23.00
2023-03-16T15:42:16.557Z,22.50
2023-03-16T15:47:19.644Z,22.75
2023-03-16T15:52:27.561Z,23.50
2023-03-16T15:57:31.334Z,23.00
2023-03-16T16:02:34.224Z,23.00
2023-03-16T16:07:38.721Z,24.25
2023-03-16T16:12:41.529Z,21.75
2023-03-16T16:18:01.066Z,21.25
2023-03-16T16:23:10.414Z,19.00
2023-03-16T16:28:15.007Z,20.00
2023-03-16T16:33:25.368Z,19.50
2023-03-16T16:38:30.129Z,19.00
2023-03-16T16:43:34.632Z,19.00
2023-03-16T16:48:38.907Z,19.00
2023-03-16T16:53:43.045Z,19.25
2023-03-16T16:58:46.226Z,20.00
2023-03-16T17:03:49.049Z,17.00
2023-03-16T17:08:55.024Z,19.00
2023-03-16T17:13:59.329Z,17.00
2023-03-16T17:19:02.375Z,19.75
2023-03-16T17:24:07.760Z,18.00
2023-03-16T17:29:14.387Z,18.75
2023-03-16T17:34:18.304Z,15.00
2023-03-16T17:39:23.554Z,15.80
2023-03-16T17:44:34.162Z,17.60
2023-03-16T17:49:36.981Z,15.00
2023-03-16T17:54:41.096Z,15.60
2023-03-16T17:59:43.891Z,16.00
2023-03-16T18:04:46.745Z,16.00
2023-03-16T18:09:50.967Z,14.60
2023-03-16T18:14:58.458Z,14.00
2023-03-16T18:20:01.332Z,14.00
2023-03-16T18:25:10.540Z,14.00
2023-03-16T18:30:14.142Z,12.40
2023-03-16T18:35:17.031Z,14.20
2023-03-16T18:40:21.437Z,12.60
2023-03-16T18:45:24.446Z,13.00
2023-03-16T18:50:28.687Z,10.00
2023-03-16T18:55:33.020Z,12.80
2023-03-16T19:00:36.142Z,12.20
2023-03-16T19:05:39.498Z,12.00
2023-03-16T19:10:46.932Z,12.40
2023-03-16T19:15:50.056Z,9.00
2023-03-16T19:20:53.152Z,10.00
2023-03-16T19:25:58.302Z,11.00
2023-03-16T19:31:01.316Z,10.00
2023-03-16T19:36:04.717Z,9.80
2023-03-16T19:41:20.348Z,11.00
2023-03-16T19:46:23.238Z,10.60
2023-03-16T19:51:29.052Z,7.80
2023-03-16T19:56:33.489Z,9.80
2023-03-16T20:01:36.355Z,9.00
2023-03-16T20:06:39.210Z,9.00
2023-03-16T20:11:43.332Z,9.00
2023-03-16T20:16:47.978Z,10.00
2023-03-16T20:21:50.873Z,10.20
2023-03-16T20:26:55.039Z,11.00
2023-03-16T20:31:57.879Z,10.40
2023-03-16T20:37:01.135Z,9.20
2023-03-16T20:42:05.781Z,9.80
2023-03-16T20:47:11.372Z,9.40
2023-03-16T20:52:17.204Z,9.40
2023-03-16T20:57:22.687Z,10.00
2023-03-16T21:02:43.037Z,9.20
2023-03-16T21:07:46.001Z,9.00
2023-03-16T21:12:51.112Z,9.20
2023-03-16T21:17:57.036Z,10.00
2023-03-16T21:22:59.944Z,8.80
2023-03-16T21:28:04.999Z,8.80
2023-03-16T21:33:13.243Z,7.00
2023-03-16T21:38:17.031Z,7.00
2023-03-16T21:43:21.344Z,6.80
2023-03-16T21:48:25.859Z,6.60
2023-03-16T21:53:30.926Z,7.40
2023-03-16T21:58:35.220Z,6.80
2023-03-16T22:03:50.599Z,6.80
2023-03-16T22:08:54.026Z,8.80
2023-03-16T22:13:58.888Z,7.00
2023-03-16T22:19:01.917Z,7.60
2023-03-16T22:24:05.788Z,6.80
2023-03-16T22:29:25.235Z,6.20
2023-03-16T22:34:30.296Z,7.40
2023-03-16T22:39:36.086Z,6.00
2023-03-16T22:44:40.266Z,7.00
2023-03-16T22:49:43.096Z,6.20
2023-03-16T22:54:46.085Z,5.00
2023-03-16T22:59:50.337Z,6.00
2023-03-16T23:04:53.298Z,5.80
2023-03-16T23:09:56.658Z,6.20
2023-03-16T23:15:01.021Z,6.00
2023-03-16T23:20:04.167Z,6.00
2023-03-16T23:25:07.965Z,7.00
2023-03-16T23:30:20.749Z,6.00
2023-03-16T23:35:24.804Z,6.00
2023-03-16T23:40:29.083Z,5.00
2023-03-16T23:45:34.734Z,6.00
2023-03-16T23:50:37.643Z,6.00
2023-03-16T23:55:41.155Z,4.60
